Time;durP1;ratioP1;P1;durP2;ratioP2;P2;SDS_P1;SDS_P2;PMS_P1;PMS_P2;Temp;Humidity;BMP_temperature;BMP_pressure;BME280_temperature;BME280_humidity;BME280_pressure;Samples;Min_cycle;Max_cycle;Signal;HPM_P1;HPM_P2
2023/04/23 00:00:40;;;;;;;129.15;59.10;;;;;;;6.71;100.00;100739.97;4917098;29;20187;-70
2023/04/23 00:03:11;;;;;;;124.07;57.80;;;;;;;6.71;100.00;100729.53;4898316;29;20110;-70
2023/04/23 00:05:38;;;;;;;127.60;58.33;;;;;;;6.69;100.00;100731.28;4912604;29;20084;-70
2023/04/23 00:08:04;;;;;;;122.80;56.92;;;;;;;6.67;100.00;100725.22;4898307;29;20036;-70
2023/04/23 00:10:30;;;;;;;118.75;57.05;;;;;;;6.64;100.00;100723.47;4901159;29;20075;-70
2023/04/23 00:12:56;;;;;;;122.45;58.33;;;;;;;6.65;100.00;100721.72;4898573;29;20047;-70
2023/04/23 00:15:22;;;;;;;115.70;55.88;;;;;;;6.61;100.00;100717.38;4913223;29;20047;-70
2023/04/23 00:17:48;;;;;;;112.35;54.42;;;;;;;6.58;100.00;100720.84;4916340;29;20424;-70
2023/04/23 00:20:15;;;;;;;113.90;54.75;;;;;;;6.58;100.00;100716.50;4896752;29;20052;-70
2023/04/23 00:22:42;;;;;;;109.07;52.92;;;;;;;6.56;100.00;100710.41;4904779;29;20377;-70
2023/04/23 00:25:08;;;;;;;112.60;54.00;;;;;;;6.55;100.00;100713.91;4920448;29;20456;-70
2023/04/23 00:27:34;;;;;;;110.78;52.25;;;;;;;6.52;100.00;100708.69;4905432;29;20048;-70
2023/04/23 00:30:02;;;;;;;104.95;51.47;;;;;;;6.51;100.00;100704.34;4920296;29;20102;-71
2023/04/23 00:32:27;;;;;;;105.95;52.70;;;;;;;6.53;100.00;100702.59;4902432;29;20056;-71
2023/04/23 00:34:54;;;;;;;98.53;49.35;;;;;;;6.51;100.00;100693.06;4899758;29;20051;-71
2023/04/23 00:37:19;;;;;;;89.85;47.83;;;;;;;6.52;100.00;100695.69;4911030;29;20044;-71
2023/04/23 00:39:45;;;;;;;93.57;48.63;;;;;;;6.53;100.00;100691.31;4916574;29;20039;-72
2023/04/23 00:42:11;;;;;;;95.97;49.70;;;;;;;6.53;100.00;100692.19;4937718;29;20127;-71
2023/04/23 00:44:43;;;;;;;98.07;51.05;;;;;;;6.52;100.00;100674.84;4904477;29;20043;-71
2023/04/23 00:47:09;;;;;;;95.45;49.28;;;;;;;6.50;100.00;100681.78;4901714;29;20059;-72
2023/04/23 00:49:39;;;;;;;98.68;49.67;;;;;;;6.49;100.00;100684.38;4917645;29;20099;-71
2023/04/23 00:52:04;;;;;;;95.40;50.00;;;;;;;6.49;100.00;100680.03;4886908;29;20051;-71
2023/04/23 00:54:30;;;;;;;95.65;50.15;;;;;;;6.49;100.00;100682.63;4901508;29;20032;-71
2023/04/23 00:56:59;;;;;;;95.53;49.72;;;;;;;6.47;100.00;100668.75;4897346;29;20126;-71
2023/04/23 00:59:25;;;;;;;89.60;48.33;;;;;;;6.40;100.00;100674.81;4904843;29;20035;-71
2023/04/23 01:01:51;;;;;;;87.72;46.33;;;;;;;6.41;100.00;100676.56;4904529;29;20485;-71
2023/04/23 01:04:18;;;;;;;92.60;48.03;;;;;;;6.39;100.00;100673.94;4916094;29;20054;-71
2023/04/23 01:06:47;;;;;;;88.07;47.20;;;;;;;6.36;100.00;100670.44;4904280;29;20040;-71
2023/04/23 01:09:13;;;;;;;83.70;46.27;;;;;;;6.34;100.00;100665.25;4904645;29;20487;-71
2023/04/23 01:11:42;;;;;;;84.35;46.25;;;;;;;6.32;100.00;100660.91;4903882;29;20059;-71
2023/04/23 01:14:07;;;;;;;82.63;46.15;;;;;;;6.34;100.00;100661.78;4919736;29;20369;-71
2023/04/23 01:16:34;;;;;;;78.45;44.90;;;;;;;6.33;100.00;100665.25;4903564;29;20059;-71
2023/04/23 01:19:01;;;;;;;87.45;46.38;;;;;;;6.32;100.00;100660.91;4901421;29;20055;-71
2023/04/23 01:21:27;;;;;;;86.07;46.47;;;;;;;6.32;100.00;100660.91;4897309;29;20044;-71
2023/04/23 01:23:53;;;;;;;91.03;46.42;;;;;;;6.30;100.00;100652.22;4936876;29;20123;-72
2023/04/23 01:26:18;;;;;;;89.88;48.42;;;;;;;6.31;100.00;100644.41;4885393;29;20471;-72
2023/04/23 01:28:45;;;;;;;95.28;48.65;;;;;;;6.32;100.00;100647.88;4918385;29;20102;-72
2023/04/23 01:31:13;;;;;;;99.90;51.92;;;;;;;6.37;100.00;100653.97;4900321;29;20051;-72
2023/04/23 01:33:39;;;;;;;90.05;48.97;;;;;;;6.34;100.00;100648.78;4887817;29;20175;-72
2023/04/23 01:36:05;;;;;;;100.05;50.10;;;;;;;6.35;100.00;100650.47;4903147;29;20051;-71
2023/04/23 01:38:35;;;;;;;95.60;50.13;;;;;;;6.37;100.00;100648.78;4905475;29;20503;-72
2023/04/23 01:41:00;;;;;;;95.80;50.85;;;;;;;6.36;100.00;100652.22;4919029;29;20046;-72
2023/04/23 01:43:27;;;;;;;97.65;50.15;;;;;;;6.38;100.00;100647.91;4919408;29;20039;-72
2023/04/23 01:45:52;;;;;;;91.32;48.88;;;;;;;6.39;100.00;100649.63;4904948;29;20122;-71
2023/04/23 01:48:18;;;;;;;96.20;50.97;;;;;;;6.37;100.00;100649.63;4900668;29;20040;-72
2023/04/23 01:50:44;;;;;;;92.03;49.03;;;;;;;6.38;100.00;100647.91;4897026;29;20051;-72
2023/04/23 01:53:09;;;;;;;86.25;47.78;;;;;;;6.37;100.00;100643.56;4884868;29;20103;-72
2023/04/23 01:55:38;;;;;;;93.07;50.25;;;;;;;6.36;100.00;100641.81;4897451;29;20054;-72
2023/04/23 01:58:03;;;;;;;84.18;47.88;;;;;;;6.38;100.00;100642.72;4900252;29;20036;-72
2023/04/23 02:00:29;;;;;;;80.25;45.85;;;;;;;6.39;100.00;100637.50;4914142;29;20036;-72
2023/04/23 02:02:55;;;;;;;85.47;46.78;;;;;;;6.41;100.00;100634.91;4906455;29;20043;-72
2023/04/23 02:05:20;;;;;;;85.70;45.85;;;;;;;6.43;100.00;100635.75;4891311;29;20051;-70
2023/04/23 02:07:48;;;;;;;78.10;45.65;;;;;;;6.47;100.00;100641.88;4918557;29;20032;-71
2023/04/23 02:10:15;;;;;;;79.68;47.00;;;;;;;6.47;100.00;100637.50;4918635;29;20051;-70
2023/04/23 02:12:40;;;;;;;73.82;44.58;;;;;;;6.48;100.00;100636.66;4917693;29;20043;-70
2023/04/23 02:15:07;;;;;;;78.90;44.83;;;;;;;6.49;100.00;100632.31;4918677;29;20400;-70
2023/04/23 02:17:34;;;;;;;73.38;44.08;;;;;;;6.48;100.00;100628.84;4918136;29;20051;-71
2023/04/23 02:20:02;;;;;;;75.40;44.55;;;;;;;6.51;100.00;100628.84;4901725;29;20040;-70
2023/04/23 02:22:27;;;;;;;69.22;41.95;;;;;;;6.49;100.00;100627.97;4926967;29;20054;-71
2023/04/23 02:24:54;;;;;;;65.85;41.08;;;;;;;6.48;100.00;100626.25;4912606;29;20039;-71
2023/04/23 02:27:19;;;;;;;64.22;40.30;;;;;;;6.47;100.00;100627.09;4909309;29;20187;-70
2023/04/23 02:29:45;;;;;;;63.30;39.08;;;;;;;6.44;100.00;100624.50;4902659;29;20130;-70
2023/04/23 02:32:11;;;;;;;59.90;39.53;;;;;;;6.44;100.00;100624.50;4899985;29;20134;-70
2023/04/23 02:34:36;;;;;;;67.68;42.33;;;;;;;6.48;100.00;100621.03;4917156;29;20043;-70
2023/04/23 02:37:03;;;;;;;60.05;37.83;;;;;;;6.45;100.00;100621.03;4933779;29;20084;-70
2023/04/23 02:39:30;;;;;;;62.42;39.30;;;;;;;6.48;100.00;100622.75;4902576;29;20065;-70
2023/04/23 02:41:57;;;;;;;61.00;39.78;;;;;;;6.46;100.00;100616.69;4902678;29;20062;-70
2023/04/23 02:44:25;;;;;;;60.72;39.13;;;;;;;6.49;100.00;100616.69;4917287;29;20054;-71
2023/04/23 02:46:51;;;;;;;65.95;41.45;;;;;;;6.55;100.00;100617.56;4918108;29;20039;-71
2023/04/23 02:49:19;;;;;;;62.40;39.65;;;;;;;6.70;100.00;100624.53;4886219;29;20067;-71
2023/04/23 02:51:45;;;;;;;61.33;40.20;;;;;;;6.77;100.00;100620.19;4902688;29;20053;-72
2023/04/23 02:54:10;;;;;;;58.53;39.20;;;;;;;6.83;100.00;100628.00;4901932;29;20043;-72
2023/04/23 02:56:36;;;;;;;57.20;38.28;;;;;;;6.90;100.00;100621.91;4908893;29;20047;-72
2023/04/23 02:59:01;;;;;;;57.08;38.63;;;;;;;6.94;100.00;100615.84;4918117;29;20110;-72
2023/04/23 03:01:27;;;;;;;54.47;37.92;;;;;;;7.00;100.00;100619.31;4902669;29;20067;-72
2023/04/23 03:03:52;;;;;;;54.47;37.50;;;;;;;7.02;100.00;100620.19;4886974;29;20036;-72
2023/04/23 03:06:18;;;;;;;49.05;35.35;;;;;;;7.06;100.00;100627.13;4899633;29;20044;-72
2023/04/23 03:08:43;;;;;;;51.08;35.10;;;;;;;7.06;100.00;100624.53;4884521;29;20522;-72
2023/04/23 03:11:09;;;;;;;54.33;38.17;;;;;;;7.10;100.00;100621.06;4917805;29;20035;-72
2023/04/23 03:13:34;;;;;;;49.03;35.95;;;;;;;7.13;100.00;100620.19;4879224;29;20400;-72
2023/04/23 03:16:00;;;;;;;45.90;34.05;;;;;;;7.13;100.00;100613.22;4901581;29;20036;-72
2023/04/23 03:18:25;;;;;;;47.17;33.17;;;;;;;7.14;100.00;100607.16;4901597;29;20048;-72
2023/04/23 03:20:51;;;;;;;46.42;34.53;;;;;;;7.15;100.00;100603.66;4901244;29;20492;-72
2023/04/23 03:25:44;;;;;;;46.40;34.03;;;;;;;7.21;100.00;100597.56;5068563;23;20239;-72
2023/04/23 03:28:09;;;;;;;48.15;35.20;;;;;;;7.24;100.00;100595.84;5194743;23;20052;-71
2023/04/23 03:30:35;;;;;;;45.78;35.13;;;;;;;7.26;100.00;100595.84;5412236;23;20286;-71
2023/04/23 03:35:57;;;;;;;45.13;34.08;;;;;;;7.27;100.00;100589.75;5260836;23;20056;31
2023/04/23 03:38:23;;;;;;;46.25;34.42;;;;;;;7.28;100.00;100587.16;5284802;23;20059;-71
2023/04/23 03:45:43;;;;;;;43.70;31.80;;;;;;;7.36;100.00;100592.31;5077490;23;20018;-71
2023/04/23 03:48:36;;;;;;;42.70;31.98;;;;;;;7.38;100.00;100585.34;5396842;23;20025;-71
2023/04/23 03:51:05;;;;;;;43.13;32.20;;;;;;;7.43;100.00;100593.19;5195081;23;20059;31
2023/04/23 03:59:00;;;;;;;41.30;30.17;;;;;;;7.51;100.00;100588.78;5340283;23;20064;-71
2023/04/23 04:01:26;;;;;;;39.20;30.73;;;;;;;7.49;100.00;100585.34;4966011;23;20509;-72
2023/04/23 04:08:54;;;;;;;39.97;31.05;;;;;;;7.59;100.00;100587.03;5286044;23;20052;-71
2023/04/23 04:11:20;;;;;;;37.30;29.50;;;;;;;7.57;100.00;100596.63;5103635;23;20074;-71
2023/04/23 04:13:45;;;;;;;40.05;30.35;;;;;;;7.48;100.00;100573.16;5185759;23;20044;-70
2023/04/23 04:16:11;;;;;;;39.10;29.95;;;;;;;7.54;100.00;100580.09;5007451;23;20066;-71
2023/04/23 04:18:38;;;;;;;39.78;29.30;;;;;;;7.58;100.00;100587.03;5339332;23;20059;-71
2023/04/23 04:21:03;;;;;;;36.75;28.42;;;;;;;7.61;100.00;100593.13;4873132;29;20052;-71
2023/04/23 04:23:29;;;;;;;38.70;29.35;;;;;;;7.61;100.00;100593.13;4918372;29;20407;-71
2023/04/23 04:25:56;;;;;;;37.53;27.90;;;;;;;7.60;100.00;100591.38;4916934;29;20472;-71
2023/04/23 04:28:24;;;;;;;37.75;28.67;;;;;;;7.59;100.00;100605.28;4890544;29;20040;-71
2023/04/23 04:30:53;;;;;;;36.83;28.25;;;;;;;7.55;100.00;100598.34;4929354;29;20043;-71
2023/04/23 04:33:19;;;;;;;41.17;29.45;;;;;;;7.59;100.00;100604.44;4906329;29;20040;-71
2023/04/23 04:35:47;;;;;;;36.40;28.15;;;;;;;7.55;100.00;100602.72;4901053;29;20044;-71
2023/04/23 04:38:13;;;;;;;35.92;27.60;;;;;;;7.54;100.00;100599.25;4901395;29;20530;-71
2023/04/23 04:40:39;;;;;;;33.80;26.25;;;;;;;7.54;100.00;100603.56;4888219;29;20032;-71
2023/04/23 04:43:05;;;;;;;35.30;27.35;;;;;;;7.49;100.00;100600.97;4904943;29;20039;-71
2023/04/23 04:45:31;;;;;;;36.67;26.73;;;;;;;7.46;100.00;100603.59;4902311;29;20544;-70
2023/04/23 04:47:56;;;;;;;34.35;26.77;;;;;;;7.49;100.00;100603.59;4904643;29;20127;-70
2023/04/23 04:50:22;;;;;;;37.35;27.73;;;;;;;7.50;100.00;100600.13;4919408;29;20104;-71
2023/04/23 04:52:47;;;;;;;37.22;27.58;;;;;;;7.52;100.00;100592.28;4904073;29;20421;-72
2023/04/23 04:55:13;;;;;;;34.72;27.45;;;;;;;7.50;100.00;100600.13;4915561;29;20131;-71
2023/04/23 04:57:38;;;;;;;34.58;26.77;;;;;;;7.51;100.00;100596.63;4886261;29;20055;-72
2023/04/23 05:00:27;;;;;;;34.70;25.73;;;;;;;7.52;100.00;100594.91;4898591;29;20044;-72
2023/04/23 05:02:53;;;;;;;36.30;27.77;;;;;;;7.51;100.00;100601.84;4925036;29;20046;-72
2023/04/23 05:05:19;;;;;;;32.75;25.95;;;;;;;7.49;100.00;100594.91;4921226;29;20033;-71
2023/04/23 05:07:44;;;;;;;33.38;24.85;;;;;;;7.50;100.00;100605.34;4911361;29;20036;-72
2023/04/23 05:10:11;;;;;;;34.38;25.95;;;;;;;7.49;100.00;100602.72;4929612;29;20031;-72
2023/04/23 05:12:40;;;;;;;34.78;26.17;;;;;;;7.52;100.00;100608.78;4929038;29;20551;-71
2023/04/23 05:15:07;;;;;;;32.80;25.92;;;;;;;7.52;100.00;100607.94;4908063;29;20039;-71
2023/04/23 05:17:32;;;;;;;33.70;26.85;;;;;;;7.56;100.00;100607.06;4919315;29;20106;-71
2023/04/23 05:20:16;;;;;;;34.50;26.45;;;;;;;7.60;100.00;100600.94;4902960;29;20060;-71
2023/04/23 05:22:42;;;;;;;35.05;26.90;;;;;;;7.62;100.00;100601.81;4917100;29;20047;-70
2023/04/23 05:25:10;;;;;;;32.65;26.02;;;;;;;7.65;100.00;100601.81;4919302;29;20032;-71
2023/04/23 05:27:35;;;;;;;34.47;26.20;;;;;;;7.69;100.00;100594.84;4904715;29;20067;-71
2023/04/23 05:30:04;;;;;;;33.35;25.38;;;;;;;7.75;100.00;100603.50;4903406;29;20570;-70
2023/04/23 05:32:30;;;;;;;32.90;26.75;;;;;;;7.83;100.00;100611.31;4904640;29;20424;-70
2023/04/23 05:34:56;;;;;;;35.08;26.23;;;;;;;7.96;100.00;100610.38;4918662;29;20039;-71
2023/04/23 05:37:21;;;;;;;31.00;25.15;;;;;;;8.11;100.00;100609.41;4919876;29;20061;-71
2023/04/23 05:39:47;;;;;;;33.60;25.48;;;;;;;8.27;100.00;100615.41;4918973;29;20346;-71
2023/04/23 05:42:12;;;;;;;34.42;25.77;;;;;;;8.36;100.00;100611.00;4919010;29;20403;-70
2023/04/23 05:44:40;;;;;;;32.58;25.45;;;;;;;8.44;100.00;100609.22;4888162;29;20040;-71
2023/04/23 05:47:06;;;;;;;33.75;25.17;;;;;;;8.47;100.00;100611.84;4904083;29;20036;-71
2023/04/23 05:49:31;;;;;;;31.90;23.77;;;;;;;8.51;100.00;100613.56;4918673;29;20046;-71
2023/04/23 05:51:58;;;;;;;29.10;22.75;;;;;;;8.52;100.00;100598.75;4903185;29;20046;-71
2023/04/23 05:54:23;;;;;;;28.20;23.20;;;;;;;8.52;100.00;100609.19;4903051;29;20229;-71
2023/04/23 05:56:49;;;;;;;26.73;21.85;;;;;;;8.53;100.00;100601.34;4885657;29;20056;-71
2023/04/23 05:59:15;;;;;;;26.05;22.42;;;;;;;8.51;100.00;100590.06;4908058;29;20056;-71
2023/04/23 06:01:43;;;;;;;26.05;21.88;;;;;;;8.57;100.00;100600.47;4903733;29;20046;-71
2023/04/23 06:04:08;;;;;;;27.85;21.88;;;;;;;8.75;100.00;100596.84;4887100;29;20109;-71
2023/04/23 06:06:34;;;;;;;27.23;22.60;;;;;;;8.93;100.00;100598.41;4885335;29;20044;-71
2023/04/23 06:08:59;;;;;;;27.52;22.00;;;;;;;9.15;100.00;100601.72;4900204;29;20403;-70
2023/04/23 06:11:25;;;;;;;25.42;21.17;;;;;;;9.36;100.00;100605.84;4902817;29;20099;-70
2023/04/23 06:13:50;;;;;;;25.05;20.88;;;;;;;9.63;99.64;100605.56;4884712;29;20067;-70
2023/04/23 06:16:16;;;;;;;22.52;20.13;;;;;;;9.84;98.02;100609.66;4927946;29;20282;-71
2023/04/23 06:18:41;;;;;;;25.05;18.45;;;;;;;10.04;96.45;100596.31;4897488;29;20032;-72
2023/04/23 06:21:07;;;;;;;22.30;17.77;;;;;;;10.22;94.60;100598.69;4918349;29;20051;-72
2023/04/23 06:23:36;;;;;;;19.27;17.08;;;;;;;10.36;93.07;100598.53;4908154;29;20043;-71
2023/04/23 06:26:03;;;;;;;20.92;16.70;;;;;;;10.54;92.34;100593.91;4924194;29;20480;-71
2023/04/23 06:28:28;;;;;;;19.00;16.58;;;;;;;10.77;92.50;100588.28;4907266;29;20039;-71
2023/04/23 06:30:54;;;;;;;18.83;16.02;;;;;;;10.87;90.89;100589.00;4894593;29;20070;-71
2023/04/23 06:33:19;;;;;;;19.23;14.82;;;;;;;10.98;89.04;100576.56;4913773;29;20380;-71
2023/04/23 06:35:45;;;;;;;17.63;15.48;;;;;;;11.24;88.86;100575.22;4917653;29;20040;-71
2023/04/23 06:38:11;;;;;;;18.00;15.23;;;;;;;11.38;87.51;100565.34;4909039;29;20130;-70
2023/04/23 06:40:36;;;;;;;18.00;14.80;;;;;;;11.52;87.63;100567.69;4925305;29;22014;-71
2023/04/23 06:43:04;;;;;;;16.27;14.15;;;;;;;11.60;85.66;100564.91;4904292;29;20697;-71
2023/04/23 06:45:30;;;;;;;16.45;14.02;;;;;;;11.78;86.10;100576.81;4902712;29;20043;-71
2023/04/23 06:47:56;;;;;;;16.65;14.02;;;;;;;11.95;85.30;100571.19;4908713;29;20408;-71
2023/04/23 06:50:22;;;;;;;16.55;13.65;;;;;;;12.16;84.82;100569.00;4884267;29;20040;-71
2023/04/23 06:52:48;;;;;;;15.85;12.90;;;;;;;12.39;85.42;100564.06;4923833;29;20110;-71
2023/04/23 06:55:13;;;;;;;17.15;12.85;;;;;;;12.63;84.68;100559.13;4902619;29;20043;-71
2023/04/23 06:57:38;;;;;;;12.85;11.30;;;;;;;12.98;82.12;100560.00;4901944;29;20043;-71
2023/04/23 07:00:07;;;;;;;13.70;11.73;;;;;;;13.23;81.22;100556.69;4904532;29;20039;-72
2023/04/23 07:02:33;;;;;;;12.75;10.98;;;;;;;13.38;80.74;100560.72;4916731;29;20051;-72
2023/04/23 07:04:59;;;;;;;13.48;10.48;;;;;;;13.49;77.76;100562.16;4900811;29;20051;-72
2023/04/23 07:07:24;;;;;;;13.05;9.77;;;;;;;13.55;77.10;100562.88;4894585;29;20038;-72
2023/04/23 07:09:50;;;;;;;15.50;9.73;;;;;;;13.74;76.93;100564.06;4903215;29;20059;-72
2023/04/23 07:12:15;;;;;;;14.07;9.63;;;;;;;14.14;77.57;100559.38;4900343;29;20096;-72
2023/04/23 07:14:42;;;;;;;12.20;8.93;;;;;;;14.25;75.04;100562.56;4910972;29;20043;-72
2023/04/23 07:17:09;;;;;;;13.00;8.77;;;;;;;14.20;72.94;100557.41;4927795;29;20038;-72
2023/04/23 07:19:35;;;;;;;13.43;8.40;;;;;;;14.27;73.90;100558.06;4905201;29;20055;-73
2023/04/23 07:22:00;;;;;;;10.73;8.15;;;;;;;14.41;72.89;100549.75;4917156;29;20090;-72
2023/04/23 07:24:26;;;;;;;10.02;7.53;;;;;;;14.56;72.26;100551.84;4926800;29;20404;-72
2023/04/23 07:26:51;;;;;;;12.18;7.32;;;;;;;14.59;71.35;100550.91;4896362;29;20040;-72
2023/04/23 07:29:17;;;;;;;9.23;7.20;;;;;;;14.88;74.05;100544.69;4901475;29;20035;-72
2023/04/23 07:31:43;;;;;;;10.27;6.57;;;;;;;15.17;72.20;100550.72;4901205;29;20054;-72
2023/04/23 07:34:10;;;;;;;10.80;6.78;;;;;;;15.29;70.04;100553.84;4886013;29;20047;-72
2023/04/23 07:41:48;;;;;;;10.80;5.82;;;;;;;15.70;68.88;100549.66;4930936;29;20064;-71
2023/04/23 07:44:13;;;;;;;9.55;6.07;;;;;;;15.76;66.54;100551.22;4869009;29;20048;-71
2023/04/23 07:46:39;;;;;;;8.93;5.68;;;;;;;16.05;68.94;100546.63;4883575;29;20468;-71
2023/04/23 07:49:04;;;;;;;8.55;5.20;;;;;;;16.24;66.94;100542.31;4864915;29;20056;-71
2023/04/23 07:51:30;;;;;;;9.90;5.68;;;;;;;16.56;68.37;100542.78;4881085;29;20135;-71
2023/04/23 07:53:57;;;;;;;11.20;6.60;;;;;;;16.55;66.22;100535.78;4875060;29;20070;-71
2023/04/23 07:56:23;;;;;;;15.27;7.38;;;;;;;16.64;64.67;100537.19;4904891;29;20055;-71
2023/04/23 07:58:49;;;;;;;16.48;5.65;;;;;;;16.27;64.90;100534.25;4881399;29;20040;-71
2023/04/23 08:01:15;;;;;;;10.05;4.93;;;;;;;15.71;65.17;100539.97;4888890;29;20528;-71
2023/04/23 08:03:40;;;;;;;10.18;5.03;;;;;;;15.91;66.95;100537.44;4917800;29;20039;-71
2023/04/23 08:06:06;;;;;;;9.70;4.50;;;;;;;15.90;64.28;100532.22;4916998;29;20073;-72
2023/04/23 08:08:31;;;;;;;9.32;4.47;;;;;;;15.77;64.50;100545.88;4881188;29;20050;-71
2023/04/23 08:10:57;;;;;;;8.88;4.30;;;;;;;15.89;65.19;100534.00;4905863;29;20544;-71
2023/04/23 08:13:23;;;;;;;8.77;4.05;;;;;;;15.91;65.52;100536.59;4881701;29;20041;-71
2023/04/23 08:15:48;;;;;;;9.02;3.83;;;;;;;16.10;63.92;100523.50;4874726;29;20500;-73
2023/04/23 08:18:14;;;;;;;11.18;4.30;;;;;;;16.41;63.86;100523.13;4880241;29;20058;-73
2023/04/23 08:20:40;;;;;;;8.00;3.47;;;;;;;16.48;63.73;100528.16;4848250;29;20036;-73
2023/04/23 08:23:06;;;;;;;8.90;4.03;;;;;;;16.92;63.37;100520.16;4900344;29;20567;-73
2023/04/23 08:25:31;;;;;;;8.60;3.95;;;;;;;16.81;62.68;100525.88;4886744;29;20124;-73
2023/04/23 08:27:57;;;;;;;10.82;3.90;;;;;;;17.20;63.73;100519.81;4882395;29;20142;-74
2023/04/23 08:30:23;;;;;;;8.23;3.80;;;;;;;17.55;65.57;100516.50;4882113;29;20485;-73
2023/04/23 08:32:52;;;;;;;10.52;3.42;;;;;;;17.11;60.77;100522.84;4865921;29;20056;-73
2023/04/23 08:35:18;;;;;;;8.20;3.30;;;;;;;16.80;60.81;100518.88;4870899;29;20052;-73
2023/04/23 08:37:44;;;;;;;12.85;3.05;;;;;;;16.73;61.99;100506.81;4852034;29;20047;-73
2023/04/23 08:40:10;;;;;;;6.18;2.63;;;;;;;16.62;63.51;100508.16;4868879;29;20453;-73
2023/04/23 08:42:48;;;;;;;7.95;3.40;;;;;;;16.77;62.74;100511.91;4869426;29;20107;-73
2023/04/23 08:45:15;;;;;;;8.73;2.80;;;;;;;16.58;62.72;100501.25;4885868;29;20127;-73
2023/04/23 08:47:41;;;;;;;8.02;3.00;;;;;;;16.87;61.30;100512.38;4870259;29;20076;-74
2023/04/23 08:50:18;;;;;;;10.27;2.80;;;;;;;17.49;62.24;100512.34;4881684;29;20099;-73
2023/04/23 08:52:52;;;;;;;8.25;3.05;;;;;;;17.20;58.45;100513.66;4900620;29;20036;-73
2023/04/23 08:55:20;;;;;;;11.85;4.10;;;;;;;16.37;59.14;100505.66;4892956;29;20032;-72
2023/04/23 08:57:46;;;;;;;12.30;3.95;;;;;;;16.51;61.44;100505.09;4884401;29;20037;-74
2023/04/23 09:00:14;;;;;;;14.02;3.50;;;;;;;16.58;60.75;100503.91;4885121;29;21083;-73
2023/04/23 09:02:41;;;;;;;12.80;3.88;;;;;;;16.51;60.15;100510.38;4884779;29;20135;-73
2023/04/23 09:05:07;;;;;;;14.05;3.67;;;;;;;16.53;61.85;100497.94;4889652;29;20052;-74
2023/04/23 09:07:34;;;;;;;10.10;3.47;;;;;;;16.82;60.34;100498.47;4870487;29;20041;-73
2023/04/23 09:10:08;;;;;;;8.70;2.97;;;;;;;17.26;62.43;100498.34;4869866;29;20063;-73
2023/04/23 09:12:39;;;;;;;10.07;2.20;;;;;;;17.35;61.05;100501.50;4882394;29;20048;-73
2023/04/23 09:15:09;;;;;;;8.40;2.50;;;;;;;17.27;56.43;100510.66;4880989;29;20040;-73
2023/04/23 09:17:38;;;;;;;8.70;2.35;;;;;;;17.10;57.82;100507.91;4886197;29;20042;-73
2023/04/23 09:20:05;;;;;;;6.63;2.28;;;;;;;16.73;56.44;100501.53;4882771;29;20037;-73
2023/04/23 09:22:47;;;;;;;10.43;2.58;;;;;;;16.63;57.30;100509.00;4900783;29;20378;-72
2023/04/23 09:25:23;;;;;;;7.85;2.10;;;;;;;16.47;58.87;100502.66;4900941;29;20488;-73
2023/04/23 09:27:50;;;;;;;6.75;2.00;;;;;;;16.31;57.70;100500.63;4882038;29;20032;-73
2023/04/23 09:30:18;;;;;;;6.32;1.88;;;;;;;16.71;57.20;100490.16;4877001;29;20201;-73
2023/04/23 09:32:44;;;;;;;7.75;2.08;;;;;;;16.97;58.90;100487.25;4900934;29;20540;-73
2023/04/23 09:35:15;;;;;;;7.72;1.80;;;;;;;17.01;55.84;100484.47;4903883;29;20529;-73
2023/04/23 09:37:47;;;;;;;6.22;2.10;;;;;;;17.01;57.12;100493.31;4902107;29;20036;-73
2023/04/23 09:43:18;;;;;;;7.82;1.88;;;;;;;17.31;57.16;100491.06;5542990;23;20503;-73
2023/04/23 09:45:50;;;;;;;6.43;2.20;;;;;;;17.38;55.17;100485.47;4883996;29;20043;-73
2023/04/23 09:48:15;;;;;;;7.65;1.92;;;;;;;17.50;53.89;100479.63;4885823;29;20044;-73
2023/04/23 09:50:41;;;;;;;4.68;2.08;;;;;;;17.28;52.37;100485.91;4901562;29;20488;-73
2023/04/23 09:53:08;;;;;;;6.28;1.80;;;;;;;17.37;56.78;100479.31;4918658;29;20460;-73
2023/04/23 09:55:38;;;;;;;11.15;1.95;;;;;;;17.41;54.55;100475.63;4913484;29;20095;-73
2023/04/23 09:58:11;;;;;;;6.90;1.50;;;;;;;17.13;52.36;100473.34;4899505;29;20052;-73
2023/04/23 10:00:39;;;;;;;7.47;1.73;;;;;;;17.06;55.56;100470.09;4895479;29;20048;-72
2023/04/23 10:03:07;;;;;;;5.97;1.70;;;;;;;16.74;52.76;100463.56;4917115;29;20035;-72
2023/04/23 10:05:38;;;;;;;9.52;2.25;;;;;;;16.80;55.88;100461.50;4916226;29;20447;-73
2023/04/23 10:08:05;;;;;;;8.65;1.77;;;;;;;16.68;54.34;100466.47;4913468;29;20043;-73
2023/04/23 10:10:32;;;;;;;8.32;3.58;;;;;;;16.70;55.61;100462.00;4919168;29;20043;-73
2023/04/23 10:12:58;;;;;;;7.97;2.17;;;;;;;16.68;54.75;100466.47;4919566;29;20066;-73
2023/04/23 10:15:26;;;;;;;7.53;1.83;;;;;;;16.60;53.57;100470.31;4900411;29;20492;-73
2023/04/23 10:17:52;;;;;;;8.07;1.52;;;;;;;16.47;54.68;100463.81;4915124;29;20095;-73
2023/04/23 10:20:20;;;;;;;8.40;2.03;;;;;;;16.46;55.36;100464.75;4892632;29;20048;-73
2023/04/23 10:22:46;;;;;;;7.10;2.30;;;;;;;16.50;56.59;100466.34;4930350;29;20065;-73
2023/04/23 10:25:13;;;;;;;5.30;1.77;;;;;;;16.55;54.74;100464.38;4884791;29;20036;-73
2023/04/23 10:27:40;;;;;;;6.18;2.30;;;;;;;16.72;55.72;100462.75;4915408;29;20040;-73
2023/04/23 10:30:08;;;;;;;8.13;2.78;;;;;;;16.82;57.16;100457.94;4897079;29;20127;-73
2023/04/23 10:32:34;;;;;;;7.07;2.22;;;;;;;16.54;54.24;100467.94;4884159;29;20067;-74
2023/04/23 10:34:59;;;;;;;7.00;1.77;;;;;;;16.54;55.56;100460.00;4917596;29;20067;-73
2023/04/23 10:37:26;;;;;;;5.00;1.88;;;;;;;16.58;56.46;100452.81;4891819;29;20040;-71
2023/04/23 10:40:03;;;;;;;5.22;1.98;;;;;;;16.62;57.40;100452.59;4925906;29;20042;-71
2023/04/23 10:42:29;;;;;;;9.95;3.03;;;;;;;16.76;58.39;100445.84;4921418;29;20044;-71
2023/04/23 10:44:57;;;;;;;5.10;2.08;;;;;;;16.61;55.59;100442.94;4886328;29;20055;-71
2023/04/23 10:47:23;;;;;;;6.82;2.00;;;;;;;16.52;55.21;100438.06;4901749;29;20047;-71
2023/04/23 10:49:48;;;;;;;6.47;2.65;;;;;;;16.48;57.30;100438.22;4885574;29;20130;-71
2023/04/23 10:52:16;;;;;;;9.52;2.40;;;;;;;16.27;55.96;100432.94;4917428;29;20043;-71
2023/04/23 10:54:43;;;;;;;5.13;2.03;;;;;;;16.22;58.03;100425.19;4918048;29;20087;-71
2023/04/23 10:57:10;;;;;;;5.90;1.80;;;;;;;16.26;58.33;100424.16;4874899;29;20071;-71
2023/04/23 10:59:50;;;;;;;6.65;1.98;;;;;;;16.52;59.06;100418.66;4917963;29;20031;-71
2023/04/23 11:02:15;;;;;;;4.90;1.77;;;;;;;16.57;55.92;100422.81;4900527;29;20047;-71
2023/04/23 11:04:44;;;;;;;6.78;1.80;;;;;;;16.59;57.03;100415.69;4887497;29;20036;-70
2023/04/23 11:07:11;;;;;;;5.85;1.77;;;;;;;16.71;57.38;100418.75;4895329;29;20397;-71
2023/04/23 11:09:45;;;;;;;7.85;1.95;;;;;;;16.63;55.56;100403.19;4900906;29;20066;-71
2023/04/23 11:12:34;;;;;;;6.13;2.00;;;;;;;17.02;58.29;100412.94;4916272;29;20078;-71
2023/04/23 11:15:10;;;;;;;5.88;1.80;;;;;;;17.13;55.76;100405.38;4906946;29;20039;-71
2023/04/23 11:17:35;;;;;;;5.60;2.00;;;;;;;17.23;59.04;100405.81;4918055;29;20095;-71
2023/04/23 11:20:20;;;;;;;6.45;1.80;;;;;;;17.35;58.64;100406.16;4916755;29;20040;-71
2023/04/23 11:22:46;;;;;;;4.20;2.00;;;;;;;17.29;56.99;100394.91;4915479;29;20090;-71
2023/04/23 11:25:20;;;;;;;7.28;3.10;;;;;;;16.78;53.52;100396.38;4917980;29;20036;-72
2023/04/23 11:27:46;;;;;;;4.93;1.73;;;;;;;16.18;54.58;100389.25;4907628;29;20075;-71
2023/04/23 11:30:15;;;;;;;7.22;2.55;;;;;;;15.94;56.78;100385.84;4917039;29;20031;-70
2023/04/23 11:32:43;;;;;;;6.70;2.08;;;;;;;16.03;58.16;100376.66;4901377;29;20047;-71
2023/04/23 11:35:09;;;;;;;6.13;2.05;;;;;;;16.15;57.75;100375.28;4915540;29;20039;-71
2023/04/23 11:37:40;;;;;;;4.82;1.80;;;;;;;16.27;58.89;100375.63;4900081;29;20138;-69
2023/04/23 11:40:09;;;;;;;5.07;1.55;;;;;;;16.52;59.11;100363.13;4917344;29;20038;-69
2023/04/23 11:42:52;;;;;;;5.90;1.70;;;;;;;16.51;57.94;100359.63;4918399;29;20067;-70